Time;durP1;ratioP1;P1;durP2;ratioP2;P2;SDS_P1;SDS_P2;PMS_P1;PMS_P2;Temp;Humidity;BMP_temperature;BMP_pressure;BME280_temperature;BME280_humidity;BME280_pressure;Samples;Min_cycle;Max_cycle;Signal;HPM_P1;HPM_P2
2022/09/06 00:02:19;;;;;;;6.68;3.28;;;19.90;99.90;;;;;;5091868;28;20290;-53
2022/09/06 00:04:48;;;;;;;3.58;3.25;;;19.70;99.90;;;;;;5091249;28;20204;-53
2022/09/06 00:07:16;;;;;;;3.72;2.97;;;19.70;99.90;;;;;;5091598;28;20224;-53
2022/09/06 00:09:44;;;;;;;4.55;3.50;;;19.60;99.90;;;;;;5091253;28;20665;-53
2022/09/06 00:12:13;;;;;;;3.15;2.95;;;19.60;99.90;;;;;;5092047;28;20204;-53
2022/09/06 00:14:41;;;;;;;3.60;3.30;;;19.50;99.90;;;;;;5091429;28;20770;-52
2022/09/06 00:17:11;;;;;;;3.47;3.17;;;19.50;99.90;;;;;;5076460;28;20236;-53
2022/09/06 00:19:39;;;;;;;3.42;3.13;;;19.50;99.90;;;;;;5090483;28;20289;-53
2022/09/06 00:22:07;;;;;;;4.13;3.83;;;19.40;99.90;;;;;;5091238;28;20208;-53
2022/09/06 00:24:36;;;;;;;5.00;3.80;;;19.40;99.90;;;;;;5091844;28;20215;-53
2022/09/06 00:27:04;;;;;;;5.18;4.05;;;19.30;99.90;;;;;;5091151;28;20297;-52
2022/09/06 00:29:35;;;;;;;3.72;3.45;;;19.20;99.90;;;;;;5091495;28;20250;-53
2022/09/06 00:32:03;;;;;;;4.68;4.00;;;19.30;99.90;;;;;;5091177;28;20200;-53
2022/09/06 00:34:31;;;;;;;5.43;3.65;;;19.20;99.90;;;;;;5086527;28;20209;-53
2022/09/06 00:36:59;;;;;;;7.07;3.70;;;19.30;99.90;;;;;;5091161;28;20224;-53
2022/09/06 00:39:27;;;;;;;5.05;3.25;;;19.20;99.90;;;;;;5091136;28;20639;-53
2022/09/06 00:41:55;;;;;;;4.07;3.50;;;19.20;99.90;;;;;;5090830;28;20291;-53
2022/09/06 00:44:23;;;;;;;4.55;3.70;;;19.10;99.90;;;;;;5091149;28;20205;-54
2022/09/06 00:46:55;;;;;;;3.95;3.65;;;19.10;99.90;;;;;;5091573;28;20277;-53
2022/09/06 00:49:27;;;;;;;4.47;3.70;;;19.00;99.90;;;;;;5095215;28;20572;-53
2022/09/06 00:51:58;;;;;;;4.50;4.07;;;19.00;99.90;;;;;;5111429;28;20252;-53
2022/09/06 00:54:27;;;;;;;3.85;3.55;;;18.90;99.90;;;;;;5111340;28;20200;-52
2022/09/06 00:56:57;;;;;;;5.13;3.88;;;19.00;99.90;;;;;;5102255;28;20280;-53
2022/09/06 00:59:26;;;;;;;4.22;3.75;;;18.90;99.90;;;;;;5111338;28;20215;-53
2022/09/06 01:01:56;;;;;;;3.90;3.42;;;18.90;99.90;;;;;;5110101;28;20208;-53
2022/09/06 01:04:26;;;;;;;4.43;3.70;;;18.90;99.90;;;;;;5111128;28;20254;-52
2022/09/06 01:07:01;;;;;;;4.05;3.70;;;18.90;99.90;;;;;;5109782;28;20888;-53
2022/09/06 01:09:47;;;;;;;4.82;3.80;;;18.90;99.90;;;;;;5111341;28;20199;-53
2022/09/06 01:12:34;;;;;;;4.70;3.75;;;18.90;99.90;;;;;;5085357;28;20208;-53
2022/09/06 01:15:15;;;;;;;3.95;3.63;;;18.90;99.90;;;;;;5110568;28;20223;-53
2022/09/06 01:17:55;;;;;;;4.38;3.97;;;18.90;99.90;;;;;;5078578;28;20637;-53
2022/09/06 01:20:40;;;;;;;4.15;3.85;;;18.90;99.90;;;;;;5090141;28;20220;-53
2022/09/06 01:24:03;;;;;;;4.00;3.60;;;18.90;99.90;;;;;;5108294;28;20273;-53
2022/09/06 01:27:13;;;;;;;5.80;3.92;;;18.80;99.90;;;;;;5088447;28;20302;-53
2022/09/06 01:29:48;;;;;;;5.78;3.72;;;18.80;99.90;;;;;;5099291;28;20272;-53
2022/09/06 01:32:23;;;;;;;4.60;4.20;;;18.70;99.90;;;;;;5110380;28;20211;-53
2022/09/06 01:34:54;;;;;;;4.40;4.00;;;18.70;99.90;;;;;;5099976;28;20299;-53
2022/09/06 01:37:23;;;;;;;6.43;4.63;;;18.60;99.90;;;;;;5105073;28;20232;-53
2022/09/06 01:39:51;;;;;;;4.05;3.75;;;18.60;99.90;;;;;;5110179;28;20276;-52
2022/09/06 01:42:23;;;;;;;4.93;4.22;;;18.60;99.90;;;;;;5110087;28;20211;-53
2022/09/06 01:44:55;;;;;;;5.13;4.20;;;18.60;99.90;;;;;;5096846;28;20640;-52
2022/09/06 01:47:36;;;;;;;5.18;4.10;;;18.60;99.90;;;;;;5110242;28;20280;-53
2022/09/06 01:50:30;;;;;;;4.60;4.20;;;18.50;99.90;;;;;;5083767;28;20207;-53
2022/09/06 01:53:09;;;;;;;4.93;4.53;;;18.50;99.90;;;;;;5109664;28;20208;-53
2022/09/06 01:55:46;;;;;;;5.03;4.53;;;18.50;99.90;;;;;;5104785;28;20277;-53
2022/09/06 01:58:34;;;;;;;5.15;4.60;;;18.50;99.90;;;;;;5108346;28;20228;-53
2022/09/06 02:01:09;;;;;;;5.40;4.90;;;18.50;99.90;;;;;;5110277;28;20764;-53
2022/09/06 02:03:47;;;;;;;5.25;4.75;;;18.50;99.90;;;;;;5109801;28;20203;-53
2022/09/06 02:06:21;;;;;;;4.90;4.50;;;18.50;99.90;;;;;;5110284;28;20281;-53
2022/09/06 02:08:54;;;;;;;5.25;4.75;;;18.50;99.90;;;;;;5110401;28;20276;-53
2022/09/06 02:11:27;;;;;;;5.20;4.80;;;18.50;99.90;;;;;;5095852;28;20226;-53
2022/09/06 02:13:58;;;;;;;4.70;4.30;;;18.50;99.90;;;;;;5089407;28;20730;-53
2022/09/06 02:16:30;;;;;;;4.97;4.57;;;18.50;99.90;;;;;;5089322;28;20224;-53
2022/09/06 02:19:05;;;;;;;5.85;5.03;;;18.50;99.90;;;;;;5089272;28;20711;-53
2022/09/06 02:21:37;;;;;;;5.45;4.97;;;18.50;99.90;;;;;;5088295;28;20219;-53
2022/09/06 02:24:08;;;;;;;5.93;4.85;;;18.50;99.90;;;;;;5088983;28;20572;-52
2022/09/06 02:26:40;;;;;;;5.45;5.05;;;18.50;99.90;;;;;;5088199;28;20228;-53
2022/09/06 02:29:08;;;;;;;6.28;5.68;;;18.50;99.90;;;;;;5077084;28;20209;-53
2022/09/06 02:31:42;;;;;;;5.70;5.05;;;18.50;99.90;;;;;;5087694;28;20204;-52
2022/09/06 02:34:14;;;;;;;5.25;4.75;;;18.50;99.90;;;;;;5088663;28;20208;-53
2022/09/06 02:36:42;;;;;;;5.60;4.82;;;18.40;99.90;;;;;;5089260;28;20259;-53
2022/09/06 02:39:10;;;;;;;4.93;4.40;;;18.40;99.90;;;;;;5089412;28;20204;-53
2022/09/06 02:41:40;;;;;;;4.93;4.38;;;18.40;99.90;;;;;;5088891;28;21058;-53
2022/09/06 02:44:08;;;;;;;4.97;4.45;;;18.40;99.90;;;;;;5088320;28;20254;-52
2022/09/06 02:46:38;;;;;;;5.90;5.30;;;18.40;99.90;;;;;;5074987;28;20298;-53
2022/09/06 02:49:06;;;;;;;5.57;5.10;;;18.30;99.90;;;;;;5089254;28;20654;-53
2022/09/06 02:51:37;;;;;;;5.50;5.00;;;18.30;99.90;;;;;;5088149;28;20269;-53
2022/09/06 02:54:05;;;;;;;5.30;4.90;;;18.30;99.90;;;;;;5089353;28;20277;-53
2022/09/06 02:56:35;;;;;;;4.70;4.30;;;18.30;99.90;;;;;;5088442;28;20285;-53
2022/09/06 02:59:04;;;;;;;5.72;5.15;;;18.30;99.90;;;;;;5089379;28;20210;-53
2022/09/06 03:01:32;;;;;;;5.40;4.90;;;18.40;99.90;;;;;;5089168;28;20627;-53
2022/09/06 03:04:02;;;;;;;5.95;5.10;;;18.40;99.90;;;;;;5088914;28;20222;-53
2022/09/06 03:06:30;;;;;;;6.65;4.90;;;18.40;99.90;;;;;;5089157;28;20255;-52
2022/09/06 03:08:59;;;;;;;6.10;5.50;;;18.40;99.90;;;;;;5088421;28;20226;-53
2022/09/06 03:11:27;;;;;;;7.18;5.63;;;18.40;99.90;;;;;;5088987;28;20205;-53
2022/09/06 03:13:55;;;;;;;6.55;4.97;;;18.40;99.90;;;;;;5088718;28;20224;-53
2022/09/06 03:16:23;;;;;;;6.03;5.10;;;18.40;99.90;;;;;;5089261;28;20296;-53
2022/09/06 03:18:52;;;;;;;6.03;5.22;;;18.40;99.90;;;;;;5088454;28;20208;-53
2022/09/06 03:21:21;;;;;;;7.63;5.93;;;18.40;99.90;;;;;;5075239;28;20227;-53
2022/09/06 03:23:49;;;;;;;6.38;5.75;;;18.40;99.90;;;;;;5088527;28;20209;-53
2022/09/06 03:26:17;;;;;;;6.53;5.47;;;18.40;99.90;;;;;;5091505;28;20653;-53
2022/09/06 03:28:45;;;;;;;6.00;5.50;;;18.40;99.90;;;;;;5092745;28;20207;-53
2022/09/06 03:31:13;;;;;;;5.90;5.30;;;18.40;99.90;;;;;;5092466;28;20245;-52
2022/09/06 03:33:42;;;;;;;7.18;5.63;;;18.40;99.90;;;;;;5091818;28;20710;-53
2022/09/06 03:36:10;;;;;;;6.85;6.00;;;18.40;99.90;;;;;;5091789;28;20252;-52
2022/09/06 03:38:39;;;;;;;6.43;5.82;;;18.40;99.90;;;;;;5092142;28;20676;-53
2022/09/06 03:41:07;;;;;;;6.05;5.55;;;18.30;99.90;;;;;;5091519;28;20220;-54
2022/09/06 03:43:35;;;;;;;6.38;5.60;;;18.30;99.90;;;;;;5092477;28;20266;-53
2022/09/06 03:46:03;;;;;;;7.15;6.43;;;18.40;99.90;;;;;;5091939;28;20228;-53
2022/09/06 03:48:31;;;;;;;5.85;5.35;;;18.30;99.90;;;;;;5091897;28;20228;-53
2022/09/06 03:51:00;;;;;;;10.35;5.70;;;18.30;99.90;;;;;;5092151;28;20204;-52
2022/09/06 03:53:29;;;;;;;6.20;5.60;;;18.30;99.90;;;;;;5091727;28;20228;-53
2022/09/06 03:55:59;;;;;;;5.95;5.45;;;18.30;99.90;;;;;;5091961;28;20228;-52
2022/09/06 03:58:30;;;;;;;5.72;5.22;;;18.20;99.90;;;;;;5091470;28;20204;-53
2022/09/06 04:01:03;;;;;;;7.55;6.25;;;18.30;99.90;;;;;;5091911;28;20282;-53
2022/09/06 04:03:33;;;;;;;6.20;5.60;;;18.30;99.90;;;;;;5091703;28;20235;-52
2022/09/06 04:06:01;;;;;;;6.35;5.63;;;18.30;99.90;;;;;;5091608;28;20596;-53
2022/09/06 04:08:29;;;;;;;6.15;5.55;;;18.30;99.90;;;;;;5091853;28;20208;-53
2022/09/06 04:10:59;;;;;;;6.30;5.75;;;18.30;99.90;;;;;;5091217;28;20254;-53
2022/09/06 04:13:28;;;;;;;5.70;5.20;;;18.30;99.90;;;;;;5091637;28;20234;-53
2022/09/06 04:15:58;;;;;;;5.40;5.00;;;18.40;99.90;;;;;;5091493;28;20302;-53
2022/09/06 04:18:26;;;;;;;5.68;5.18;;;18.40;99.90;;;;;;5091349;28;20669;-53
2022/09/06 04:20:55;;;;;;;5.43;5.03;;;18.40;99.90;;;;;;5077050;28;20286;-53
2022/09/06 04:23:25;;;;;;;6.10;5.50;;;18.40;99.90;;;;;;5091471;28;20269;-53
2022/09/06 04:25:56;;;;;;;5.68;5.18;;;18.40;99.90;;;;;;5090499;28;20232;-53
2022/09/06 04:28:26;;;;;;;6.22;5.50;;;18.40;99.90;;;;;;5090849;28;20230;-53
2022/09/06 04:30:55;;;;;;;8.10;6.30;;;18.40;99.90;;;;;;5091307;28;20695;-53
2022/09/06 04:33:28;;;;;;;7.95;6.15;;;18.40;99.90;;;;;;5090911;28;20231;-53
2022/09/06 04:35:58;;;;;;;6.55;5.95;;;18.30;99.90;;;;;;5090976;28;20228;-53
2022/09/06 04:38:28;;;;;;;7.30;5.55;;;18.20;99.90;;;;;;5091178;28;20200;-53
2022/09/06 04:40:56;;;;;;;7.30;5.85;;;18.20;99.90;;;;;;5090910;28;20224;-53
2022/09/06 04:43:26;;;;;;;6.45;5.90;;;18.10;99.90;;;;;;5091217;28;20694;-53
2022/09/06 04:45:54;;;;;;;6.22;5.50;;;18.00;99.90;;;;;;5090572;28;20232;-53
2022/09/06 04:48:22;;;;;;;6.30;5.78;;;18.00;99.90;;;;;;5090411;28;20208;-53
2022/09/06 04:50:50;;;;;;;7.25;5.57;;;18.00;99.90;;;;;;5090570;28;20265;-52
2022/09/06 04:53:18;;;;;;;6.50;5.90;;;18.00;99.90;;;;;;5095173;28;20275;-52
2022/09/06 04:55:46;;;;;;;6.40;5.85;;;18.00;99.90;;;;;;5106318;28;20224;-59
2022/09/06 04:58:14;;;;;;;6.57;5.70;;;17.90;99.90;;;;;;5111450;28;20267;-52
2022/09/06 05:00:44;;;;;;;6.63;5.70;;;17.90;99.90;;;;;;5111091;28;20204;-53
2022/09/06 05:03:12;;;;;;;6.20;5.60;;;17.90;99.90;;;;;;5111144;28;20282;-53
2022/09/06 05:05:40;;;;;;;8.10;6.05;;;17.90;99.90;;;;;;5110084;28;20288;-52
2022/09/06 05:08:08;;;;;;;6.25;5.65;;;17.90;99.90;;;;;;5110655;28;20207;-53
2022/09/06 05:10:37;;;;;;;6.38;5.82;;;17.90;99.90;;;;;;5110415;28;20273;-53
2022/09/06 05:13:05;;;;;;;6.55;5.95;;;17.90;99.90;;;;;;5110341;28;20203;-53
2022/09/06 05:15:33;;;;;;;6.15;5.65;;;17.90;99.90;;;;;;5110513;28;20731;-53
2022/09/06 05:18:03;;;;;;;6.00;5.47;;;17.90;99.90;;;;;;5111360;28;20208;-52
2022/09/06 05:20:32;;;;;;;6.20;5.68;;;17.90;99.90;;;;;;5086722;28;20208;-53
2022/09/06 05:23:00;;;;;;;6.38;5.85;;;17.90;99.90;;;;;;5090718;28;20293;-52
2022/09/06 05:25:28;;;;;;;7.15;6.47;;;17.90;99.90;;;;;;5090062;28;20285;-53
2022/09/06 05:27:56;;;;;;;7.93;7.15;;;17.90;99.90;;;;;;5090490;28;20612;-53
2022/09/06 05:30:24;;;;;;;7.85;7.10;;;17.80;99.90;;;;;;5090258;28;20217;-53
2022/09/06 05:32:52;;;;;;;9.27;6.70;;;17.80;99.90;;;;;;5090520;28;20219;-53
2022/09/06 05:35:21;;;;;;;7.50;6.75;;;17.80;99.90;;;;;;5090388;28;20250;-53
2022/09/06 05:37:49;;;;;;;7.57;6.82;;;17.90;99.90;;;;;;5085787;28;20208;-53
2022/09/06 05:40:17;;;;;;;7.28;5.90;;;17.90;99.90;;;;;;5090022;28;20230;-53
2022/09/06 05:42:45;;;;;;;6.93;6.28;;;18.00;99.90;;;;;;5089717;28;20254;-52
2022/09/06 05:45:14;;;;;;;6.63;6.00;;;18.00;99.90;;;;;;5090574;28;20257;-52
2022/09/06 05:47:42;;;;;;;7.35;6.45;;;18.00;99.90;;;;;;5089894;28;20205;-53
2022/09/06 05:50:10;;;;;;;6.28;5.68;;;18.10;99.90;;;;;;5090083;28;20279;-54
2022/09/06 05:52:39;;;;;;;7.40;6.55;;;18.10;99.90;;;;;;5090135;28;20285;-49
2022/09/06 05:55:08;;;;;;;6.97;5.80;;;18.10;99.90;;;;;;5090354;28;20204;-50
2022/09/06 05:57:36;;;;;;;6.38;5.82;;;18.10;99.90;;;;;;5089970;28;20644;-50
2022/09/06 06:00:05;;;;;;;6.20;5.70;;;18.10;99.90;;;;;;5090057;28;20208;-49
2022/09/06 06:02:33;;;;;;;6.25;5.68;;;18.20;99.90;;;;;;5089815;28;20333;-51
2022/09/06 06:05:02;;;;;;;6.38;5.78;;;18.30;99.90;;;;;;5089890;28;20210;-50
2022/09/06 06:07:30;;;;;;;6.22;5.63;;;18.30;99.90;;;;;;5090396;28;20200;-51
2022/09/06 06:09:59;;;;;;;6.40;5.82;;;18.40;99.90;;;;;;5089930;28;20201;-50
2022/09/06 06:12:27;;;;;;;6.75;6.15;;;18.40;99.90;;;;;;5089508;28;20649;-50
2022/09/06 06:14:55;;;;;;;5.80;5.30;;;18.60;99.90;;;;;;5089621;28;20216;-50
2022/09/06 06:17:23;;;;;;;6.40;5.50;;;18.70;99.90;;;;;;5089446;28;20642;-51
2022/09/06 06:19:52;;;;;;;6.50;5.35;;;18.90;99.90;;;;;;5081514;28;20631;-51
2022/09/06 06:22:20;;;;;;;5.90;5.22;;;19.00;99.90;;;;;;5083901;28;20285;-50
2022/09/06 06:24:48;;;;;;;6.60;5.57;;;19.10;99.90;;;;;;5089931;28;20204;-50
2022/09/06 06:27:17;;;;;;;5.78;5.20;;;19.10;99.90;;;;;;5088975;28;20289;-49
2022/09/06 06:29:45;;;;;;;6.32;5.82;;;19.30;99.90;;;;;;5088768;28;20216;-51
2022/09/06 06:32:13;;;;;;;6.43;5.40;;;19.80;99.90;;;;;;5089269;28;20297;-50
2022/09/06 06:34:41;;;;;;;5.70;5.13;;;20.50;99.90;;;;;;5089394;28;20216;-49
2022/09/06 06:37:09;;;;;;;6.30;5.03;;;20.80;99.90;;;;;;5089375;28;20285;-51
2022/09/06 06:39:37;;;;;;;6.15;5.10;;;20.70;99.90;;;;;;5088889;28;20204;-51
2022/09/06 06:42:06;;;;;;;5.55;5.00;;;20.80;99.90;;;;;;5089181;28;20319;-50
2022/09/06 06:44:35;;;;;;;6.07;4.75;;;20.80;99.90;;;;;;5089276;28;20204;-51
2022/09/06 06:47:03;;;;;;;6.10;5.13;;;20.90;99.90;;;;;;5089485;28;20906;-50
2022/09/06 06:49:31;;;;;;;5.72;5.00;;;20.80;99.90;;;;;;5088619;28;20765;-52
2022/09/06 06:51:59;;;;;;;7.80;5.50;;;20.70;99.90;;;;;;5089500;28;20224;-50
2022/09/06 06:54:28;;;;;;;7.28;4.93;;;20.60;99.90;;;;;;5090265;28;20212;-50
2022/09/06 06:56:56;;;;;;;5.68;5.07;;;20.40;99.90;;;;;;5092051;28;20269;-50
2022/09/06 06:59:24;;;;;;;7.10;5.28;;;20.30;99.90;;;;;;5092752;28;20208;-50
2022/09/06 07:01:54;;;;;;;5.43;4.93;;;20.30;99.90;;;;;;5096141;28;20261;-51
2022/09/06 07:04:22;;;;;;;7.22;5.53;;;20.20;99.90;;;;;;5092894;28;20227;-50
2022/09/06 07:06:51;;;;;;;5.82;5.22;;;20.30;99.90;;;;;;5092581;28;20277;-51
2022/09/06 07:09:40;;;;;;;5.50;5.07;;;20.30;99.90;;;;;;5090170;28;20311;-50
2022/09/06 07:12:28;;;;;;;6.72;5.53;;;20.30;99.90;;;;;;5075104;28;20797;-51
2022/09/06 07:14:56;;;;;;;6.15;5.43;;;20.30;99.90;;;;;;5089580;28;20645;-50
2022/09/06 07:17:25;;;;;;;5.75;5.25;;;20.80;99.90;;;;;;5092137;28;20660;-51
2022/09/06 07:19:53;;;;;;;5.65;5.13;;;21.60;99.90;;;;;;5084328;28;20200;-49
2022/09/06 07:22:41;;;;;;;5.28;4.88;;;21.60;99.90;;;;;;5089683;28;20220;-50
2022/09/06 07:25:11;;;;;;;5.60;5.07;;;21.50;99.90;;;;;;5092086;28;20254;-50
2022/09/06 07:27:44;;;;;;;5.85;5.03;;;21.50;99.90;;;;;;5092116;28;20218;-50
2022/09/06 07:30:18;;;;;;;6.45;5.90;;;22.20;99.90;;;;;;5092411;28;20208;-51
2022/09/06 07:32:48;;;;;;;5.80;5.30;;;22.70;99.90;;;;;;5084941;28;20880;-50
2022/09/06 07:35:19;;;;;;;6.00;5.43;;;23.30;99.90;;;;;;5091901;28;20281;-51
2022/09/06 07:37:54;;;;;;;6.47;5.88;;;23.50;99.90;;;;;;5091078;28;20208;-50
2022/09/06 07:40:22;;;;;;;6.40;5.75;;;23.70;99.90;;;;;;5091598;28;20207;-52
2022/09/06 07:42:50;;;;;;;5.93;5.43;;;23.70;99.90;;;;;;5091876;28;20708;-51
2022/09/06 07:45:19;;;;;;;7.65;6.20;;;23.70;99.90;;;;;;5092129;28;20208;-52
2022/09/06 07:47:55;;;;;;;7.75;5.53;;;24.00;99.90;;;;;;5090464;28;20266;-53
2022/09/06 07:50:29;;;;;;;6.13;5.40;;;24.10;99.90;;;;;;5089180;28;20690;-50
2022/09/06 07:53:15;;;;;;;5.50;5.03;;;24.00;99.90;;;;;;5091779;28;20208;-50
2022/09/06 07:55:55;;;;;;;6.43;5.30;;;24.20;99.90;;;;;;5091826;28;20309;-50
2022/09/06 07:58:24;;;;;;;7.75;5.65;;;24.00;99.90;;;;;;5091477;28;20254;-50
2022/09/06 08:00:52;;;;;;;6.10;5.60;;;24.00;99.90;;;;;;5091752;28;20208;-49
2022/09/06 08:03:21;;;;;;;7.70;5.35;;;24.00;99.90;;;;;;5091882;28;20293;-50
2022/09/06 08:05:50;;;;;;;6.22;5.50;;;24.00;99.90;;;;;;5091424;28;20232;-50
2022/09/06 08:08:38;;;;;;;6.20;5.60;;;24.00;99.90;;;;;;5091602;28;20756;-50
2022/09/06 08:11:28;;;;;;;27.80;6.50;;;24.00;99.90;;;;;;5090454;28;20204;-50
2022/09/06 08:13:59;;;;;;;7.45;5.07;;;24.00;99.90;;;;;;5091923;28;20204;-50
2022/09/06 08:16:28;;;;;;;6.00;5.40;;;24.10;99.90;;;;;;5088026;28;20220;-51
2022/09/06 08:18:59;;;;;;;7.22;5.53;;;24.10;99.90;;;;;;5086791;28;20236;-50
2022/09/06 08:21:29;;;;;;;5.20;4.80;;;24.20;99.90;;;;;;5090447;28;20195;-51
2022/09/06 08:23:58;;;;;;;4.80;4.40;;;24.20;99.90;;;;;;5101738;28;20263;-54
2022/09/06 08:26:28;;;;;;;7.25;5.03;;;24.20;99.90;;;;;;5111234;28;20235;-50
2022/09/06 08:28:59;;;;;;;5.32;4.80;;;24.20;99.90;;;;;;5106614;28;20241;-51
2022/09/06 08:31:29;;;;;;;6.68;5.13;;;24.20;99.90;;;;;;5111738;28;20203;-51
2022/09/06 08:33:59;;;;;;;5.13;4.63;;;24.30;99.90;;;;;;5102042;28;20196;-50
2022/09/06 08:36:29;;;;;;;5.47;4.90;;;24.40;99.90;;;;;;5104119;28;20290;-50
2022/09/06 08:38:57;;;;;;;4.57;4.20;;;24.40;99.90;;;;;;5111521;28;20196;-50
2022/09/06 08:41:28;;;;;;;5.05;4.55;;;24.50;99.90;;;;;;5110885;28;20200;-50
2022/09/06 08:44:00;;;;;;;8.05;5.30;;;24.50;99.90;;;;;;5111632;28;20280;-51
2022/09/06 08:46:54;;;;;;;6.70;4.78;;;24.70;99.90;;;;;;5110862;28;20334;-50
2022/09/06 08:49:25;;;;;;;9.43;5.07;;;24.80;99.90;;;;;;5085192;28;20253;-50
2022/09/06 08:52:13;;;;;;;5.22;4.57;;;24.90;99.90;;;;;;5110583;28;20260;-50
2022/09/06 08:54:48;;;;;;;5.00;4.50;;;25.00;99.90;;;;;;5088434;28;20245;-50
2022/09/06 08:57:30;;;;;;;7.50;4.65;;;25.00;99.90;;;;;;5110578;28;20280;-51
2022/09/06 09:00:05;;;;;;;8.48;5.10;;;25.00;99.90;;;;;;5111404;28;20199;-51
2022/09/06 09:02:44;;;;;;;16.75;5.10;;;25.00;99.90;;;;;;5110962;28;20749;-50
2022/09/06 09:05:22;;;;;;;5.45;4.80;;;25.00;99.90;;;;;;5109228;28;20776;-50
2022/09/06 09:08:02;;;;;;;4.85;4.10;;;25.10;99.90;;;;;;5111130;28;20207;-50
2022/09/06 09:10:32;;;;;;;5.10;4.63;;;25.20;99.90;;;;;;5106150;28;20258;-50
2022/09/06 09:13:02;;;;;;;5.35;4.47;;;25.20;99.90;;;;;;5110511;28;20757;-51
2022/09/06 09:15:31;;;;;;;5.03;4.13;;;25.30;99.90;;;;;;5109931;28;20788;-50
2022/09/06 09:18:04;;;;;;;4.32;3.92;;;25.40;99.90;;;;;;5110894;28;20199;-50
2022/09/06 09:20:33;;;;;;;5.82;4.05;;;25.50;99.90;;;;;;5082235;28;20213;-51
2022/09/06 09:23:02;;;;;;;5.53;4.05;;;25.60;99.90;;;;;;5075108;28;20242;-50
2022/09/06 09:25:33;;;;;;;10.80;4.30;;;25.60;99.90;;;;;;5088265;28;20251;-51
2022/09/06 09:28:02;;;;;;;7.20;3.65;;;25.70;99.90;;;;;;5087257;28;20251;-51
2022/09/06 09:30:46;;;;;;;7.30;4.45;;;25.70;99.90;;;;;;5090261;28;20209;-51
2022/09/06 09:33:24;;;;;;;3.83;3.47;;;25.80;99.90;;;;;;5074944;28;20216;-49
2022/09/06 09:35:55;;;;;;;4.47;3.60;;;25.80;99.90;;;;;;5090428;28;20851;-50
2022/09/06 09:38:26;;;;;;;7.68;3.45;;;25.80;99.90;;;;;;5077167;28;20196;-51
2022/09/06 09:40:56;;;;;;;3.85;3.53;;;25.90;99.90;;;;;;5090663;28;20582;-51
2022/09/06 09:43:26;;;;;;;6.20;3.42;;;26.00;99.90;;;;;;5090162;28;20208;-50
2022/09/06 09:46:12;;;;;;;4.45;3.33;;;25.90;99.90;;;;;;5090396;28;20280;-51
2022/09/06 09:48:41;;;;;;;4.28;2.70;;;26.00;99.90;;;;;;5076790;28;20607;-51
2022/09/06 09:51:22;;;;;;;3.00;2.70;;;25.90;99.90;;;;;;5089634;28;20201;-50
2022/09/06 09:53:56;;;;;;;7.90;3.10;;;26.10;99.90;;;;;;5080395;28;20200;-51
2022/09/06 09:56:29;;;;;;;3.20;2.90;;;26.20;99.90;;;;;;5081947;28;20291;-51
2022/09/06 09:58:58;;;;;;;3.35;2.80;;;26.30;99.90;;;;;;5089980;28;20208;-51
2022/09/06 10:01:28;;;;;;;10.25;3.20;;;26.30;99.90;;;;;;5089799;28;20204;-50
2022/09/06 10:04:05;;;;;;;3.78;3.05;;;26.30;99.90;;;;;;5089078;28;20261;-51
2022/09/06 10:07:06;;;;;;;4.82;2.80;;;26.30;99.90;;;;;;5089108;28;20421;-51
2022/09/06 10:09:42;;;;;;;3.05;2.50;;;26.30;99.90;;;;;;5088914;28;20265;-50
2022/09/06 10:12:17;;;;;;;3.70;2.72;;;26.40;99.90;;;;;;5089311;28;20227;-51
2022/09/06 10:14:47;;;;;;;2.95;2.60;;;26.50;99.90;;;;;;5089203;28;20212;-51
2022/09/06 10:17:28;;;;;;;4.45;2.50;;;26.60;99.90;;;;;;5088906;28;20219;-51
2022/09/06 10:19:58;;;;;;;5.13;2.10;;;26.60;99.90;;;;;;5080422;28;20988;-51
2022/09/06 10:22:30;;;;;;;3.13;2.25;;;26.60;99.90;;;;;;5077608;28;20197;-51
2022/09/06 10:25:47;;;;;;;5.40;2.60;;;26.70;99.90;;;;;;5089353;28;20266;-50
2022/09/06 10:28:37;;;;;;;1.92;1.73;;;26.70;99.90;;;;;;5076266;28;20200;-51
2022/09/06 10:31:35;;;;;;;3.50;2.28;;;26.70;99.90;;;;;;5087494;28;20746;-51
2022/09/06 10:34:32;;;;;;;3.70;2.20;;;26.80;99.90;;;;;;5090144;28;20206;-51
2022/09/06 10:37:14;;;;;;;2.30;2.10;;;26.80;99.90;;;;;;5071762;28;20232;-50
2022/09/06 10:39:50;;;;;;;4.88;2.33;;;26.80;99.90;;;;;;5093161;28;20237;-51
2022/09/06 10:42:29;;;;;;;3.55;2.00;;;26.70;99.90;;;;;;5093191;28;20212;-50
2022/09/06 10:45:16;;;;;;;3.42;2.20;;;26.70;99.90;;;;;;5092788;28;20773;-51
2022/09/06 10:47:56;;;;;;;4.38;2.63;;;26.60;99.90;;;;;;5092935;28;20246;-50
2022/09/06 10:50:32;;;;;;;3.67;2.20;;;26.60;99.90;;;;;;5079683;28;20666;-51
2022/09/06 10:53:08;;;;;;;4.78;2.17;;;26.70;99.90;;;;;;5092967;28;20676;-51
2022/09/06 10:55:41;;;;;;;8.23;2.50;;;26.80;99.90;;;;;;5092295;28;20768;-50
2022/09/06 10:58:17;;;;;;;3.22;1.90;;;26.80;99.90;;;;;;5093135;28;20212;-51
2022/09/06 11:00:48;;;;;;;2.40;2.03;;;26.80;99.90;;;;;;5092730;28;20204;-51
2022/09/06 11:03:24;;;;;;;6.03;2.00;;;26.90;99.90;;;;;;5092806;28;20208;-51
2022/09/06 11:06:13;;;;;;;3.22;2.10;;;27.00;99.90;;;;;;5092449;28;20754;-50
2022/09/06 11:08:54;;;;;;;3.50;2.13;;;27.00;99.20;;;;;;5093299;28;20302;-50
2022/09/06 11:11:34;;;;;;;4.15;2.10;;;26.90;99.30;;;;;;5092259;28;20650;-50
2022/09/06 11:14:08;;;;;;;2.95;1.80;;;26.80;99.10;;;;;;5078907;28;20219;-51
2022/09/06 11:16:44;;;;;;;2.13;1.90;;;26.80;99.50;;;;;;5093276;28;20239;-50
2022/09/06 11:19:20;;;;;;;2.28;1.77;;;27.00;98.90;;;;;;5087196;28;20230;-50
2022/09/06 11:22:17;;;;;;;2.63;1.98;;;27.10;98.80;;;;;;5082697;28;20203;-50
2022/09/06 11:25:10;;;;;;;1.90;1.80;;;27.10;98.30;;;;;;5092745;28;20273;-50
2022/09/06 11:27:42;;;;;;;2.38;1.80;;;27.20;98.70;;;;;;5091987;28;20234;-51
2022/09/06 11:30:15;;;;;;;2.70;1.70;;;27.20;98.20;;;;;;5092869;28;20208;-49
2022/09/06 11:32:47;;;;;;;2.63;2.08;;;27.20;98.50;;;;;;5092580;28;20253;-49
2022/09/06 11:35:23;;;;;;;2.00;1.80;;;27.10;97.80;;;;;;5092116;28;20665;-50
2022/09/06 11:38:00;;;;;;;3.83;2.20;;;27.10;97.40;;;;;;5092473;28;20212;-53
2022/09/06 11:40:35;;;;;;;2.75;2.10;;;27.10;97.90;;;;;;5092345;28;20236;-50
2022/09/06 11:43:14;;;;;;;3.05;1.95;;;27.10;98.30;;;;;;5092607;28;20204;-51
2022/09/06 11:45:48;;;;;;;2.83;2.20;;;27.10;97.80;;;;;;5080069;28;20220;-51
2022/09/06 11:48:49;;;;;;;2.78;2.47;;;27.20;98.60;;;;;;5091028;28;20257;-51
2022/09/06 11:51:33;;;;;;;3.35;2.10;;;27.20;98.40;;;;;;5087705;28;20208;-50
2022/09/06 11:54:12;;;;;;;4.55;2.40;;;27.20;98.30;;;;;;5107377;28;20207;-50
2022/09/06 11:56:47;;;;;;;2.97;2.20;;;27.10;97.60;;;;;;5110605;28;20644;-51
2022/09/06 11:59:39;;;;;;;2.63;2.20;;;27.10;97.60;;;;;;5111950;28;20203;-50
2022/09/06 12:02:28;;;;;;;2.15;1.95;;;27.00;97.30;;;;;;5111244;28;20610;-50
2022/09/06 12:05:29;;;;;;;4.18;2.35;;;26.90;97.00;;;;;;5111407;28;20231;-50
2022/09/06 12:08:27;;;;;;;2.55;2.30;;;26.90;98.20;;;;;;5017831;28;20222;-50
2022/09/06 12:11:02;;;;;;;2.97;2.15;;;27.00;97.70;;;;;;5065336;28;20298;-51
2022/09/06 12:13:49;;;;;;;4.07;2.20;;;27.10;97.50;;;;;;5111337;28;20207;-50
2022/09/06 12:16:19;;;;;;;2.53;1.95;;;27.10;98.30;;;;;;5110626;28;20633;-51
2022/09/06 12:19:01;;;;;;;3.08;2.40;;;27.30;97.80;;;;;;5111885;28;20294;-50
2022/09/06 12:21:44;;;;;;;5.22;2.33;;;27.40;97.60;;;;;;5077980;28;20281;-50
2022/09/06 12:24:51;;;;;;;2.50;2.30;;;27.50;97.50;;;;;;5090917;28;20673;-50
2022/09/06 12:27:21;;;;;;;3.15;2.30;;;27.50;96.90;;;;;;5090828;28;20309;-50
2022/09/06 12:29:58;;;;;;;7.07;2.40;;;27.40;96.80;;;;;;5089122;28;20208;-51
2022/09/06 12:32:30;;;;;;;5.35;2.40;;;27.40;96.60;;;;;;5090698;28;20204;-51
2022/09/06 12:35:05;;;;;;;3.13;2.20;;;27.40;96.10;;;;;;5077586;28;20234;-50
2022/09/06 12:37:58;;;;;;;2.78;2.00;;;27.30;96.20;;;;;;5089802;28;20691;-50
2022/09/06 12:40:29;;;;;;;2.60;1.80;;;27.20;96.00;;;;;;5090218;28;20717;-50
2022/09/06 12:42:57;;;;;;;2.30;2.10;;;27.40;96.90;;;;;;5090171;28;20211;-50
2022/09/06 12:45:26;;;;;;;2.63;2.10;;;27.50;96.70;;;;;;5090225;28;20270;-51
2022/09/06 12:48:05;;;;;;;2.30;2.10;;;27.60;96.50;;;;;;5090253;28;20208;-51
2022/09/06 12:50:34;;;;;;;3.00;2.10;;;27.60;96.40;;;;;;5090165;28;20200;-51
2022/09/06 12:53:20;;;;;;;2.97;2.05;;;27.60;96.50;;;;;;5090557;28;20204;-50
2022/09/06 12:56:03;;;;;;;2.38;2.10;;;27.60;96.00;;;;;;5090024;28;20235;-51
2022/09/06 12:58:31;;;;;;;3.72;1.98;;;27.60;95.80;;;;;;5088775;28;20851;-50
2022/09/06 13:01:07;;;;;;;2.83;2.00;;;27.50;96.00;;;;;;5089589;28;20258;-50
2022/09/06 13:03:40;;;;;;;3.25;2.00;;;27.60;95.90;;;;;;5090266;28;20277;-50
2022/09/06 13:06:18;;;;;;;2.70;1.88;;;27.50;95.80;;;;;;5089344;28;20243;-51
2022/09/06 13:08:56;;;;;;;3.35;2.00;;;27.50;95.50;;;;;;5089220;28;20216;-50
2022/09/06 13:11:28;;;;;;;2.92;1.90;;;27.50;95.80;;;;;;5089635;28;20265;-50
2022/09/06 13:13:56;;;;;;;4.03;2.50;;;27.60;95.80;;;;;;5089897;28;20215;-50
2022/09/06 13:16:26;;;;;;;2.92;2.00;;;27.70;95.90;;;;;;5089217;28;20293;-51
2022/09/06 13:18:54;;;;;;;2.35;1.90;;;27.80;95.40;;;;;;5090373;28;20253;-50